sensor_id;sensor_type;location;lat;lon;timestamp;P1;durP1;ratioP1;P2;durP2;ratioP2
14472;SDS011;7322;50.872;4.386;2024-02-28T00:01:15;4.27;;;3.87;;
14472;SDS011;7322;50.872;4.386;2024-02-28T00:03:42;4.77;;;3.70;;
14472;SDS011;7322;50.872;4.386;2024-02-28T00:06:09;3.87;;;3.47;;
14472;SDS011;7322;50.872;4.386;2024-02-28T00:08:44;4.20;;;3.80;;
14472;SDS011;7322;50.872;4.386;2024-02-28T00:11:15;5.43;;;3.87;;
14472;SDS011;7322;50.872;4.386;2024-02-28T00:13:51;4.93;;;3.77;;
14472;SDS011;7322;50.872;4.386;2024-02-28T00:16:31;6.00;;;3.93;;
14472;SDS011;7322;50.872;4.386;2024-02-28T00:19:05;4.00;;;3.37;;
14472;SDS011;7322;50.872;4.386;2024-02-28T00:21:33;5.90;;;4.00;;
14472;SDS011;7322;50.872;4.386;2024-02-28T00:26:48;4.70;;;3.60;;
14472;SDS011;7322;50.872;4.386;2024-02-28T00:29:21;5.17;;;3.93;;
14472;SDS011;7322;50.872;4.386;2024-02-28T00:31:48;4.50;;;3.50;;
14472;SDS011;7322;50.872;4.386;2024-02-28T00:34:25;4.03;;;3.50;;
14472;SDS011;7322;50.872;4.386;2024-02-28T00:36:52;5.57;;;3.73;;
14472;SDS011;7322;50.872;4.386;2024-02-28T00:39:29;5.03;;;3.60;;
14472;SDS011;7322;50.872;4.386;2024-02-28T00:41:57;5.37;;;4.20;;
14472;SDS011;7322;50.872;4.386;2024-02-28T00:44:25;4.00;;;3.60;;
14472;SDS011;7322;50.872;4.386;2024-02-28T00:46:54;5.20;;;3.87;;
14472;SDS011;7322;50.872;4.386;2024-02-28T00:52:00;4.60;;;3.60;;
14472;SDS011;7322;50.872;4.386;2024-02-28T00:57:44;5.63;;;3.87;;
14472;SDS011;7322;50.872;4.386;2024-02-28T01:00:23;6.13;;;4.00;;
14472;SDS011;7322;50.872;4.386;2024-02-28T01:02:52;4.97;;;4.03;;
14472;SDS011;7322;50.872;4.386;2024-02-28T01:05:21;4.60;;;3.30;;
14472;SDS011;7322;50.872;4.386;2024-02-28T01:07:48;4.07;;;3.67;;
14472;SDS011;7322;50.872;4.386;2024-02-28T01:10:23;6.77;;;4.03;;
14472;SDS011;7322;50.872;4.386;2024-02-28T01:12:50;5.57;;;3.70;;
14472;SDS011;7322;50.872;4.386;2024-02-28T01:15:20;4.67;;;3.67;;
14472;SDS011;7322;50.872;4.386;2024-02-28T01:17:53;4.90;;;3.73;;
14472;SDS011;7322;50.872;4.386;2024-02-28T01:20:26;6.07;;;4.10;;
14472;SDS011;7322;50.872;4.386;2024-02-28T01:22:53;6.93;;;3.83;;
14472;SDS011;7322;50.872;4.386;2024-02-28T01:25:27;6.07;;;4.33;;
14472;SDS011;7322;50.872;4.386;2024-02-28T01:28:01;4.67;;;3.70;;
14472;SDS011;7322;50.872;4.386;2024-02-28T01:30:44;5.33;;;4.17;;
14472;SDS011;7322;50.872;4.386;2024-02-28T01:33:11;4.70;;;3.67;;
14472;SDS011;7322;50.872;4.386;2024-02-28T01:35:39;4.27;;;3.80;;
14472;SDS011;7322;50.872;4.386;2024-02-28T01:38:15;5.57;;;3.93;;
14472;SDS011;7322;50.872;4.386;2024-02-28T01:40:56;4.37;;;3.77;;
14472;SDS011;7322;50.872;4.386;2024-02-28T01:43:24;6.07;;;4.07;;
14472;SDS011;7322;50.872;4.386;2024-02-28T01:45:51;4.50;;;3.47;;
14472;SDS011;7322;50.872;4.386;2024-02-28T01:48:24;5.20;;;4.10;;
14472;SDS011;7322;50.872;4.386;2024-02-28T01:53:26;6.87;;;4.03;;
14472;SDS011;7322;50.872;4.386;2024-02-28T01:55:54;5.53;;;4.10;;
14472;SDS011;7322;50.872;4.386;2024-02-28T01:58:24;5.30;;;3.60;;
14472;SDS011;7322;50.872;4.386;2024-02-28T02:00:53;5.13;;;4.00;;
14472;SDS011;7322;50.872;4.386;2024-02-28T02:03:27;4.53;;;3.80;;
14472;SDS011;7322;50.872;4.386;2024-02-28T02:06:04;5.07;;;3.73;;
14472;SDS011;7322;50.872;4.386;2024-02-28T02:08:32;4.67;;;3.73;;
14472;SDS011;7322;50.872;4.386;2024-02-28T02:11:07;4.43;;;3.43;;
14472;SDS011;7322;50.872;4.386;2024-02-28T02:13:46;4.90;;;3.63;;
14472;SDS011;7322;50.872;4.386;2024-02-28T02:16:29;5.53;;;3.73;;
14472;SDS011;7322;50.872;4.386;2024-02-28T02:21:43;4.60;;;3.80;;
14472;SDS011;7322;50.872;4.386;2024-02-28T02:24:18;4.67;;;3.50;;
14472;SDS011;7322;50.872;4.386;2024-02-28T02:26:46;5.27;;;3.40;;
14472;SDS011;7322;50.872;4.386;2024-02-28T02:29:15;4.40;;;3.73;;
14472;SDS011;7322;50.872;4.386;2024-02-28T02:31:43;4.97;;;3.70;;
14472;SDS011;7322;50.872;4.386;2024-02-28T02:34:16;5.00;;;3.80;;
14472;SDS011;7322;50.872;4.386;2024-02-28T02:39:35;4.27;;;3.87;;
14472;SDS011;7322;50.872;4.386;2024-02-28T02:42:03;6.53;;;4.00;;
14472;SDS011;7322;50.872;4.386;2024-02-28T02:44:36;5.70;;;4.30;;
14472;SDS011;7322;50.872;4.386;2024-02-28T02:55:40;4.77;;;4.10;;
14472;SDS011;7322;50.872;4.386;2024-02-28T03:01:13;4.50;;;3.80;;
14472;SDS011;7322;50.872;4.386;2024-02-28T03:06:16;4.80;;;3.80;;
14472;SDS011;7322;50.872;4.386;2024-02-28T03:08:45;4.97;;;3.80;;
14472;SDS011;7322;50.872;4.386;2024-02-28T03:11:17;5.30;;;3.80;;
14472;SDS011;7322;50.872;4.386;2024-02-28T03:13:48;3.97;;;3.53;;
14472;SDS011;7322;50.872;4.386;2024-02-28T03:16:18;5.10;;;3.73;;
14472;SDS011;7322;50.872;4.386;2024-02-28T03:18:47;4.77;;;4.07;;
14472;SDS011;7322;50.872;4.386;2024-02-28T03:21:16;5.40;;;3.70;;
14472;SDS011;7322;50.872;4.386;2024-02-28T03:23:45;4.37;;;3.77;;
14472;SDS011;7322;50.872;4.386;2024-02-28T03:26:22;5.23;;;3.87;;
14472;SDS011;7322;50.872;4.386;2024-02-28T03:28:56;4.03;;;3.43;;
14472;SDS011;7322;50.872;4.386;2024-02-28T03:34:34;4.70;;;3.83;;
14472;SDS011;7322;50.872;4.386;2024-02-28T03:37:09;4.70;;;3.70;;
14472;SDS011;7322;50.872;4.386;2024-02-28T03:39:52;4.77;;;3.47;;
14472;SDS011;7322;50.872;4.386;2024-02-28T03:42:23;4.27;;;3.70;;
14472;SDS011;7322;50.872;4.386;2024-02-28T03:45:07;6.07;;;3.97;;
14472;SDS011;7322;50.872;4.386;2024-02-28T03:50:24;5.13;;;3.67;;
14472;SDS011;7322;50.872;4.386;2024-02-28T03:52:52;5.67;;;3.70;;
14472;SDS011;7322;50.872;4.386;2024-02-28T03:55:19;4.93;;;3.90;;
14472;SDS011;7322;50.872;4.386;2024-02-28T03:58:04;5.10;;;4.00;;
14472;SDS011;7322;50.872;4.386;2024-02-28T04:00:33;5.23;;;3.80;;
14472;SDS011;7322;50.872;4.386;2024-02-28T04:03:05;4.93;;;3.53;;
14472;SDS011;7322;50.872;4.386;2024-02-28T04:05:43;4.93;;;3.50;;
14472;SDS011;7322;50.872;4.386;2024-02-28T04:08:15;4.73;;;3.77;;
14472;SDS011;7322;50.872;4.386;2024-02-28T04:10:42;4.83;;;3.60;;
14472;SDS011;7322;50.872;4.386;2024-02-28T04:15:46;6.00;;;4.00;;
14472;SDS011;7322;50.872;4.386;2024-02-28T04:18:16;4.27;;;3.60;;
14472;SDS011;7322;50.872;4.386;2024-02-28T04:23:35;4.73;;;3.70;;
14472;SDS011;7322;50.872;4.386;2024-02-28T04:26:04;5.73;;;3.57;;
14472;SDS011;7322;50.872;4.386;2024-02-28T04:28:48;4.00;;;3.40;;
14472;SDS011;7322;50.872;4.386;2024-02-28T04:31:15;4.27;;;3.27;;
14472;SDS011;7322;50.872;4.386;2024-02-28T04:36:36;3.70;;;3.40;;
14472;SDS011;7322;50.872;4.386;2024-02-28T04:39:04;4.87;;;3.90;;
14472;SDS011;7322;50.872;4.386;2024-02-28T04:41:47;5.07;;;3.23;;
14472;SDS011;7322;50.872;4.386;2024-02-28T04:44:22;5.73;;;3.67;;
14472;SDS011;7322;50.872;4.386;2024-02-28T04:49:50;4.47;;;3.33;;
14472;SDS011;7322;50.872;4.386;2024-02-28T04:52:17;5.00;;;3.53;;
14472;SDS011;7322;50.872;4.386;2024-02-28T04:54:44;4.37;;;3.60;;
14472;SDS011;7322;50.872;4.386;2024-02-28T04:57:12;4.47;;;3.27;;
14472;SDS011;7322;50.872;4.386;2024-02-28T04:59:56;4.43;;;3.23;;
14472;SDS011;7322;50.872;4.386;2024-02-28T05:05:37;4.37;;;3.23;;
14472;SDS011;7322;50.872;4.386;2024-02-28T05:08:10;4.43;;;3.40;;
14472;SDS011;7322;50.872;4.386;2024-02-28T05:10:53;3.80;;;3.17;;
14472;SDS011;7322;50.872;4.386;2024-02-28T05:13:21;4.97;;;3.10;;
14472;SDS011;7322;50.872;4.386;2024-02-28T05:18:26;3.50;;;3.00;;
14472;SDS011;7322;50.872;4.386;2024-02-28T05:21:00;3.70;;;2.87;;
14472;SDS011;7322;50.872;4.386;2024-02-28T05:23:28;4.03;;;3.27;;
14472;SDS011;7322;50.872;4.386;2024-02-28T05:28:42;5.57;;;3.37;;
14472;SDS011;7322;50.872;4.386;2024-02-28T05:31:21;5.03;;;3.30;;
14472;SDS011;7322;50.872;4.386;2024-02-28T05:33:56;5.37;;;2.97;;
14472;SDS011;7322;50.872;4.386;2024-02-28T05:36:23;3.23;;;2.67;;
14472;SDS011;7322;50.872;4.386;2024-02-28T05:39:07;4.37;;;3.10;;
14472;SDS011;7322;50.872;4.386;2024-02-28T05:41:35;4.00;;;3.00;;
14472;SDS011;7322;50.872;4.386;2024-02-28T05:44:07;4.00;;;3.20;;
14472;SDS011;7322;50.872;4.386;2024-02-28T05:46:36;4.40;;;2.93;;
14472;SDS011;7322;50.872;4.386;2024-02-28T05:49:09;5.27;;;3.27;;
14472;SDS011;7322;50.872;4.386;2024-02-28T05:51:40;4.83;;;3.10;;
14472;SDS011;7322;50.872;4.386;2024-02-28T05:54:16;5.00;;;2.93;;
14472;SDS011;7322;50.872;4.386;2024-02-28T05:56:46;5.23;;;3.17;;
14472;SDS011;7322;50.872;4.386;2024-02-28T05:59:12;3.53;;;2.80;;
14472;SDS011;7322;50.872;4.386;2024-02-28T06:01:45;4.10;;;3.00;;
14472;SDS011;7322;50.872;4.386;2024-02-28T06:04:27;3.60;;;2.70;;
14472;SDS011;7322;50.872;4.386;2024-02-28T06:06:54;4.87;;;3.10;;
14472;SDS011;7322;50.872;4.386;2024-02-28T06:09:21;5.00;;;2.90;;
14472;SDS011;7322;50.872;4.386;2024-02-28T06:11:48;5.53;;;2.93;;
14472;SDS011;7322;50.872;4.386;2024-02-28T06:14:15;6.73;;;3.20;;
14472;SDS011;7322;50.872;4.386;2024-02-28T06:16:42;4.67;;;2.97;;
14472;SDS011;7322;50.872;4.386;2024-02-28T06:19:20;3.40;;;2.97;;
14472;SDS011;7322;50.872;4.386;2024-02-28T06:22:03;3.73;;;2.53;;
14472;SDS011;7322;50.872;4.386;2024-02-28T06:24:39;5.23;;;3.17;;
14472;SDS011;7322;50.872;4.386;2024-02-28T06:27:12;4.80;;;3.17;;
14472;SDS011;7322;50.872;4.386;2024-02-28T06:29:40;4.23;;;3.67;;
14472;SDS011;7322;50.872;4.386;2024-02-28T06:32:08;5.10;;;3.23;;
14472;SDS011;7322;50.872;4.386;2024-02-28T06:34:36;6.33;;;3.73;;
14472;SDS011;7322;50.872;4.386;2024-02-28T06:37:03;4.53;;;3.10;;
14472;SDS011;7322;50.872;4.386;2024-02-28T06:39:44;5.93;;;3.40;;
14472;SDS011;7322;50.872;4.386;2024-02-28T06:42:17;6.03;;;3.40;;
14472;SDS011;7322;50.872;4.386;2024-02-28T06:44:58;7.60;;;3.30;;
14472;SDS011;7322;50.872;4.386;2024-02-28T06:47:32;6.50;;;3.40;;
14472;SDS011;7322;50.872;4.386;2024-02-28T06:50:07;5.67;;;3.40;;
14472;SDS011;7322;50.872;4.386;2024-02-28T06:52:40;5.30;;;3.13;;
14472;SDS011;7322;50.872;4.386;2024-02-28T06:55:11;6.53;;;3.40;;
14472;SDS011;7322;50.872;4.386;2024-02-28T06:57:40;7.83;;;3.80;;
14472;SDS011;7322;50.872;4.386;2024-02-28T07:00:08;7.13;;;3.73;;
14472;SDS011;7322;50.872;4.386;2024-02-28T07:02:38;5.93;;;3.00;;
14472;SDS011;7322;50.872;4.386;2024-02-28T07:05:12;8.00;;;3.17;;
14472;SDS011;7322;50.872;4.386;2024-02-28T07:10:32;9.83;;;3.80;;
14472;SDS011;7322;50.872;4.386;2024-02-28T07:13:07;13.33;;;4.73;;
14472;SDS011;7322;50.872;4.386;2024-02-28T07:15:35;9.47;;;4.47;;
14472;SDS011;7322;50.872;4.386;2024-02-28T07:18:11;11.77;;;3.70;;
14472;SDS011;7322;50.872;4.386;2024-02-28T07:20:54;12.40;;;4.23;;
14472;SDS011;7322;50.872;4.386;2024-02-28T07:23:28;10.13;;;3.70;;
14472;SDS011;7322;50.872;4.386;2024-02-28T07:26:07;10.17;;;4.37;;
14472;SDS011;7322;50.872;4.386;2024-02-28T07:28:51;13.97;;;4.40;;
14472;SDS011;7322;50.872;4.386;2024-02-28T07:31:18;10.90;;;4.20;;
14472;SDS011;7322;50.872;4.386;2024-02-28T07:33:48;8.47;;;4.43;;
14472;SDS011;7322;50.872;4.386;2024-02-28T07:36:15;10.47;;;4.30;;
14472;SDS011;7322;50.872;4.386;2024-02-28T07:38:43;13.67;;;4.40;;
14472;SDS011;7322;50.872;4.386;2024-02-28T07:41:19;12.23;;;4.07;;
14472;SDS011;7322;50.872;4.386;2024-02-28T07:43:46;11.23;;;4.17;;
14472;SDS011;7322;50.872;4.386;2024-02-28T07:46:15;9.57;;;4.60;;
14472;SDS011;7322;50.872;4.386;2024-02-28T07:48:52;12.50;;;4.50;;
14472;SDS011;7322;50.872;4.386;2024-02-28T07:51:22;8.67;;;4.33;;
14472;SDS011;7322;50.872;4.386;2024-02-28T07:53:57;10.57;;;4.37;;
14472;SDS011;7322;50.872;4.386;2024-02-28T07:58:55;8.23;;;4.63;;
14472;SDS011;7322;50.872;4.386;2024-02-28T08:04:34;9.60;;;4.63;;
14472;SDS011;7322;50.872;4.386;2024-02-28T08:07:07;7.37;;;4.33;;
14472;SDS011;7322;50.872;4.386;2024-02-28T08:09:45;8.20;;;4.73;;
14472;SDS011;7322;50.872;4.386;2024-02-28T08:12:19;12.63;;;4.57;;
14472;SDS011;7322;50.872;4.386;2024-02-28T08:17:28;9.40;;;4.50;;
14472;SDS011;7322;50.872;4.386;2024-02-28T08:22:44;8.93;;;4.50;;
14472;SDS011;7322;50.872;4.386;2024-02-28T08:25:18;9.53;;;4.40;;
14472;SDS011;7322;50.872;4.386;2024-02-28T08:27:51;7.87;;;4.43;;
14472;SDS011;7322;50.872;4.386;2024-02-28T08:36:25;6.83;;;3.90;;
14472;SDS011;7322;50.872;4.386;2024-02-28T08:39:00;7.53;;;4.60;;
14472;SDS011;7322;50.872;4.386;2024-02-28T08:47:23;8.73;;;4.50;;
14472;SDS011;7322;50.872;4.386;2024-02-28T08:49:57;8.50;;;4.37;;
14472;SDS011;7322;50.872;4.386;2024-02-28T08:54:58;7.53;;;4.40;;
14472;SDS011;7322;50.872;4.386;2024-02-28T08:57:25;6.07;;;4.33;;
14472;SDS011;7322;50.872;4.386;2024-02-28T09:00:00;7.17;;;4.53;;
14472;SDS011;7322;50.872;4.386;2024-02-28T09:02:28;7.80;;;4.43;;
14472;SDS011;7322;50.872;4.386;2024-02-28T09:05:06;7.90;;;4.43;;
14472;SDS011;7322;50.872;4.386;2024-02-28T09:07:46;9.00;;;4.33;;
14472;SDS011;7322;50.872;4.386;2024-02-28T09:10:16;7.37;;;4.27;;
14472;SDS011;7322;50.872;4.386;2024-02-28T09:12:49;7.57;;;3.60;;
14472;SDS011;7322;50.872;4.386;2024-02-28T09:15:22;6.90;;;4.03;;
14472;SDS011;7322;50.872;4.386;2024-02-28T09:17:58;7.17;;;4.07;;
14472;SDS011;7322;50.872;4.386;2024-02-28T09:20:31;5.83;;;3.50;;
14472;SDS011;7322;50.872;4.386;2024-02-28T09:23:09;11.97;;;3.60;;
14472;SDS011;7322;50.872;4.386;2024-02-28T09:25:38;5.40;;;3.60;;
14472;SDS011;7322;50.872;4.386;2024-02-28T09:28:08;6.17;;;3.60;;
14472;SDS011;7322;50.872;4.386;2024-02-28T09:30:55;6.20;;;3.63;;
14472;SDS011;7322;50.872;4.386;2024-02-28T09:33:23;7.90;;;3.80;;
14472;SDS011;7322;50.872;4.386;2024-02-28T09:35:55;6.43;;;3.57;;
14472;SDS011;7322;50.872;4.386;2024-02-28T09:38:32;10.20;;;3.83;;
14472;SDS011;7322;50.872;4.386;2024-02-28T09:41:00;7.27;;;3.20;;
14472;SDS011;7322;50.872;4.386;2024-02-28T09:43:28;6.23;;;3.40;;
14472;SDS011;7322;50.872;4.386;2024-02-28T09:46:09;7.10;;;3.43;;
14472;SDS011;7322;50.872;4.386;2024-02-28T09:48:39;5.23;;;3.07;;
14472;SDS011;7322;50.872;4.386;2024-02-28T09:51:13;5.30;;;3.10;;
14472;SDS011;7322;50.872;4.386;2024-02-28T09:53:50;7.33;;;3.50;;
14472;SDS011;7322;50.872;4.386;2024-02-28T09:56:23;5.43;;;3.27;;
14472;SDS011;7322;50.872;4.386;2024-02-28T09:58:50;6.23;;;3.20;;
14472;SDS011;7322;50.872;4.386;2024-02-28T10:01:17;5.43;;;3.33;;
14472;SDS011;7322;50.872;4.386;2024-02-28T10:03:56;6.70;;;3.27;;
14472;SDS011;7322;50.872;4.386;2024-02-28T10:06:30;4.30;;;3.00;;
14472;SDS011;7322;50.872;4.386;2024-02-28T10:17:34;4.83;;;2.90;;
14472;SDS011;7322;50.872;4.386;2024-02-28T10:20:06;6.17;;;2.80;;
14472;SDS011;7322;50.872;4.386;2024-02-28T10:22:35;4.60;;;2.60;;
14472;SDS011;7322;50.872;4.386;2024-02-28T10:25:14;6.13;;;2.83;;
14472;SDS011;7322;50.872;4.386;2024-02-28T10:30:25;7.67;;;2.80;;
14472;SDS011;7322;50.872;4.386;2024-02-28T10:33:09;5.73;;;3.03;;
14472;SDS011;7322;50.872;4.386;2024-02-28T10:38:42;3.93;;;2.57;;
14472;SDS011;7322;50.872;4.386;2024-02-28T10:41:17;5.63;;;3.20;;
14472;SDS011;7322;50.872;4.386;2024-02-28T10:43:45;8.47;;;4.33;;
14472;SDS011;7322;50.872;4.386;2024-02-28T10:46:12;6.83;;;4.40;;
14472;SDS011;7322;50.872;4.386;2024-02-28T10:48:42;9.60;;;4.47;;
14472;SDS011;7322;50.872;4.386;2024-02-28T10:51:09;7.27;;;4.40;;
14472;SDS011;7322;50.872;4.386;2024-02-28T10:53:43;9.17;;;4.70;;
14472;SDS011;7322;50.872;4.386;2024-02-28T10:56:17;7.70;;;4.43;;
14472;SDS011;7322;50.872;4.386;2024-02-28T10:58:58;6.33;;;4.50;;
14472;SDS011;7322;50.872;4.386;2024-02-28T11:01:28;6.93;;;4.60;;
14472;SDS011;7322;50.872;4.386;2024-02-28T11:03:55;6.53;;;4.80;;
14472;SDS011;7322;50.872;4.386;2024-02-28T11:06:23;7.43;;;4.60;;
14472;SDS011;7322;50.872;4.386;2024-02-28T11:08:53;9.37;;;5.10;;
14472;SDS011;7322;50.872;4.386;2024-02-28T11:19:36;6.37;;;4.20;;
14472;SDS011;7322;50.872;4.386;2024-02-28T11:22:09;6.10;;;4.50;;
14472;SDS011;7322;50.872;4.386;2024-02-28T11:24:38;6.63;;;3.90;;
14472;SDS011;7322;50.872;4.386;2024-02-28T11:27:11;6.90;;;4.47;;
14472;SDS011;7322;50.872;4.386;2024-02-28T11:29:42;8.73;;;4.80;;
14472;SDS011;7322;50.872;4.386;2024-02-28T11:32:11;6.67;;;4.33;;
14472;SDS011;7322;50.872;4.386;2024-02-28T11:34:40;5.57;;;4.07;;
14472;SDS011;7322;50.872;4.386;2024-02-28T11:37:08;6.47;;;4.27;;
14472;SDS011;7322;50.872;4.386;2024-02-28T11:39:38;7.40;;;4.30;;
14472;SDS011;7322;50.872;4.386;2024-02-28T11:42:11;6.40;;;4.20;;
14472;SDS011;7322;50.872;4.386;2024-02-28T11:44:39;6.73;;;4.33;;
14472;SDS011;7322;50.872;4.386;2024-02-28T11:47:09;6.13;;;3.80;;
14472;SDS011;7322;50.872;4.386;2024-02-28T11:49:38;8.07;;;4.20;;
14472;SDS011;7322;50.872;4.386;2024-02-28T11:52:13;7.30;;;4.27;;
14472;SDS011;7322;50.872;4.386;2024-02-28T11:54:40;5.83;;;3.87;;
14472;SDS011;7322;50.872;4.386;2024-02-28T11:57:07;5.67;;;4.03;;
14472;SDS011;7322;50.872;4.386;2024-02-28T11:59:39;5.60;;;4.20;;
14472;SDS011;7322;50.872;4.386;2024-02-28T12:02:12;6.20;;;3.60;;
14472;SDS011;7322;50.872;4.386;2024-02-28T12:07:29;5.73;;;4.03;;
14472;SDS011;7322;50.872;4.386;2024-02-28T12:09:59;6.23;;;3.93;;
14472;SDS011;7322;50.872;4.386;2024-02-28T12:12:27;6.37;;;4.13;;
14472;SDS011;7322;50.872;4.386;2024-02-28T12:14:57;5.77;;;3.70;;
14472;SDS011;7322;50.872;4.386;2024-02-28T12:17:27;6.10;;;3.60;;
14472;SDS011;7322;50.872;4.386;2024-02-28T12:19:54;5.63;;;3.50;;
14472;SDS011;7322;50.872;4.386;2024-02-28T12:22:21;5.73;;;3.87;;
14472;SDS011;7322;50.872;4.386;2024-02-28T12:24:49;6.70;;;3.43;;
14472;SDS011;7322;50.872;4.386;2024-02-28T12:27:16;5.87;;;3.37;;
14472;SDS011;7322;50.872;4.386;2024-02-28T12:29:45;7.07;;;3.47;;
14472;SDS011;7322;50.872;4.386;2024-02-28T12:32:18;5.93;;;3.60;;
14472;SDS011;7322;50.872;4.386;2024-02-28T12:34:49;5.63;;;3.47;;
14472;SDS011;7322;50.872;4.386;2024-02-28T12:37:23;5.80;;;3.00;;
14472;SDS011;7322;50.872;4.386;2024-02-28T12:39:50;6.20;;;2.97;;
14472;SDS011;7322;50.872;4.386;2024-02-28T12:42:23;5.53;;;3.63;;
14472;SDS011;7322;50.872;4.386;2024-02-28T12:44:51;7.20;;;3.47;;
14472;SDS011;7322;50.872;4.386;2024-02-28T12:47:19;4.40;;;3.20;;
14472;SDS011;7322;50.872;4.386;2024-02-28T12:49:48;5.53;;;3.43;;
14472;SDS011;7322;50.872;4.386;2024-02-28T12:52:15;6.20;;;3.37;;
14472;SDS011;7322;50.872;4.386;2024-02-28T12:54:49;5.93;;;3.10;;
14472;SDS011;7322;50.872;4.386;2024-02-28T12:57:17;4.77;;;2.93;;
14472;SDS011;7322;50.872;4.386;2024-02-28T12:59:45;5.30;;;2.70;;
14472;SDS011;7322;50.872;4.386;2024-02-28T13:02:14;7.97;;;3.47;;
14472;SDS011;7322;50.872;4.386;2024-02-28T13:04:54;4.67;;;2.80;;
14472;SDS011;7322;50.872;4.386;2024-02-28T13:07:31;4.63;;;2.87;;
14472;SDS011;7322;50.872;4.386;2024-02-28T13:10:01;5.43;;;2.90;;
14472;SDS011;7322;50.872;4.386;2024-02-28T13:12:32;2.73;;;2.43;;
14472;SDS011;7322;50.872;4.386;2024-02-28T13:14:59;5.07;;;2.77;;
14472;SDS011;7322;50.872;4.386;2024-02-28T13:17:29;4.37;;;2.50;;
14472;SDS011;7322;50.872;4.386;2024-02-28T13:19:58;5.77;;;2.87;;
14472;SDS011;7322;50.872;4.386;2024-02-28T13:22:25;4.37;;;3.07;;
14472;SDS011;7322;50.872;4.386;2024-02-28T13:24:52;4.37;;;2.73;;
14472;SDS011;7322;50.872;4.386;2024-02-28T13:27:19;3.97;;;2.53;;
14472;SDS011;7322;50.872;4.386;2024-02-28T13:29:47;5.87;;;2.50;;
14472;SDS011;7322;50.872;4.386;2024-02-28T13:32:15;4.50;;;2.80;;
14472;SDS011;7322;50.872;4.386;2024-02-28T13:34:42;3.90;;;2.63;;
14472;SDS011;7322;50.872;4.386;2024-02-28T13:37:11;3.97;;;2.70;;
14472;SDS011;7322;50.872;4.386;2024-02-28T13:39:44;6.17;;;2.50;;
14472;SDS011;7322;50.872;4.386;2024-02-28T13:42:13;3.57;;;2.43;;
14472;SDS011;7322;50.872;4.386;2024-02-28T13:44:40;3.60;;;2.43;;
14472;SDS011;7322;50.872;4.386;2024-02-28T13:47:10;3.27;;;2.20;;
14472;SDS011;7322;50.872;4.386;2024-02-28T13:49:38;3.80;;;2.53;;
14472;SDS011;7322;50.872;4.386;2024-02-28T13:52:05;3.43;;;2.50;;
14472;SDS011;7322;50.872;4.386;2024-02-28T13:54:35;5.53;;;2.70;;
14472;SDS011;7322;50.872;4.386;2024-02-28T13:57:02;5.60;;;2.70;;
14472;SDS011;7322;50.872;4.386;2024-02-28T13:59:30;4.17;;;2.20;;
14472;SDS011;7322;50.872;4.386;2024-02-28T14:01:59;4.63;;;2.60;;
14472;SDS011;7322;50.872;4.386;2024-02-28T14:04:26;4.47;;;2.43;;
14472;SDS011;7322;50.872;4.386;2024-02-28T14:06:53;3.97;;;2.70;;
14472;SDS011;7322;50.872;4.386;2024-02-28T14:09:22;3.17;;;2.20;;
14472;SDS011;7322;50.872;4.386;2024-02-28T14:11:51;4.17;;;2.37;;
14472;SDS011;7322;50.872;4.386;2024-02-28T14:14:18;3.63;;;1.90;;
14472;SDS011;7322;50.872;4.386;2024-02-28T14:16:47;3.83;;;2.30;;
14472;SDS011;7322;50.872;4.386;2024-02-28T14:19:16;3.03;;;1.87;;
14472;SDS011;7322;50.872;4.386;2024-02-28T14:21:47;3.90;;;2.10;;
14472;SDS011;7322;50.872;4.386;2024-02-28T14:24:15;4.47;;;2.00;;
14472;SDS011;7322;50.872;4.386;2024-02-28T14:26:45;2.90;;;2.10;;
14472;SDS011;7322;50.872;4.386;2024-02-28T14:29:13;3.03;;;1.90;;
14472;SDS011;7322;50.872;4.386;2024-02-28T14:31:43;3.00;;;2.07;;
14472;SDS011;7322;50.872;4.386;2024-02-28T14:34:11;5.03;;;2.00;;
14472;SDS011;7322;50.872;4.386;2024-02-28T14:36:38;3.50;;;1.70;;
14472;SDS011;7322;50.872;4.386;2024-02-28T14:39:05;2.07;;;1.53;;
14472;SDS011;7322;50.872;4.386;2024-02-28T14:41:41;2.43;;;1.90;;
14472;SDS011;7322;50.872;4.386;2024-02-28T14:44:11;2.37;;;1.70;;
14472;SDS011;7322;50.872;4.386;2024-02-28T14:46:39;2.40;;;1.47;;
14472;SDS011;7322;50.872;4.386;2024-02-28T14:49:06;2.43;;;1.37;;
14472;SDS011;7322;50.872;4.386;2024-02-28T14:51:35;2.53;;;1.80;;
14472;SDS011;7322;50.872;4.386;2024-02-28T14:54:03;4.17;;;1.47;;
14472;SDS011;7322;50.872;4.386;2024-02-28T14:56:31;2.83;;;1.50;;
14472;SDS011;7322;50.872;4.386;2024-02-28T14:58:58;2.37;;;1.57;;
14472;SDS011;7322;50.872;4.386;2024-02-28T15:01:25;3.13;;;1.77;;
14472;SDS011;7322;50.872;4.386;2024-02-28T15:03:59;2.67;;;1.40;;
14472;SDS011;7322;50.872;4.386;2024-02-28T15:09:14;3.07;;;1.60;;
14472;SDS011;7322;50.872;4.386;2024-02-28T15:11:41;2.73;;;1.63;;
14472;SDS011;7322;50.872;4.386;2024-02-28T15:14:08;2.57;;;1.80;;
14472;SDS011;7322;50.872;4.386;2024-02-28T15:16:41;2.27;;;1.80;;
14472;SDS011;7322;50.872;4.386;2024-02-28T15:19:10;2.63;;;1.73;;
14472;SDS011;7322;50.872;4.386;2024-02-28T15:21:37;3.10;;;1.80;;
14472;SDS011;7322;50.872;4.386;2024-02-28T15:24:05;2.70;;;1.77;;
14472;SDS011;7322;50.872;4.386;2024-02-28T15:26:32;2.87;;;1.63;;
14472;SDS011;7322;50.872;4.386;2024-02-28T15:28:59;3.03;;;1.70;;
14472;SDS011;7322;50.872;4.386;2024-02-28T15:31:27;1.80;;;1.50;;
14472;SDS011;7322;50.872;4.386;2024-02-28T15:33:54;3.53;;;1.67;;
14472;SDS011;7322;50.872;4.386;2024-02-28T15:36:24;3.30;;;1.60;;
14472;SDS011;7322;50.872;4.386;2024-02-28T15:38:51;2.57;;;1.73;;
14472;SDS011;7322;50.872;4.386;2024-02-28T15:41:20;4.23;;;1.90;;
14472;SDS011;7322;50.872;4.386;2024-02-28T15:43:49;2.33;;;1.73;;
14472;SDS011;7322;50.872;4.386;2024-02-28T15:46:16;3.60;;;1.90;;
14472;SDS011;7322;50.872;4.386;2024-02-28T15:48:44;3.40;;;1.77;;
14472;SDS011;7322;50.872;4.386;2024-02-28T15:51:11;4.07;;;1.97;;
14472;SDS011;7322;50.872;4.386;2024-02-28T15:53:45;3.43;;;1.87;;
14472;SDS011;7322;50.872;4.386;2024-02-28T15:56:16;2.50;;;1.80;;
14472;SDS011;7322;50.872;4.386;2024-02-28T15:58:43;3.17;;;1.93;;
14472;SDS011;7322;50.872;4.386;2024-02-28T16:01:11;3.47;;;2.10;;
14472;SDS011;7322;50.872;4.386;2024-02-28T16:03:39;3.83;;;1.90;;
14472;SDS011;7322;50.872;4.386;2024-02-28T16:06:19;3.17;;;1.90;;
14472;SDS011;7322;50.872;4.386;2024-02-28T16:14:45;4.37;;;1.93;;
14472;SDS011;7322;50.872;4.386;2024-02-28T16:20:11;3.13;;;1.60;;
14472;SDS011;7322;50.872;4.386;2024-02-28T16:25:30;6.10;;;2.07;;
14472;SDS011;7322;50.872;4.386;2024-02-28T16:27:58;4.60;;;2.00;;
14472;SDS011;7322;50.872;4.386;2024-02-28T16:30:27;3.30;;;1.90;;
14472;SDS011;7322;50.872;4.386;2024-02-28T16:33:10;4.63;;;1.90;;
14472;SDS011;7322;50.872;4.386;2024-02-28T16:35:38;3.43;;;1.80;;
14472;SDS011;7322;50.872;4.386;2024-02-28T16:38:07;5.43;;;1.93;;
14472;SDS011;7322;50.872;4.386;2024-02-28T16:40:39;4.30;;;2.10;;
14472;SDS011;7322;50.872;4.386;2024-02-28T16:43:06;5.13;;;2.17;;
14472;SDS011;7322;50.872;4.386;2024-02-28T16:45:35;4.63;;;2.33;;
14472;SDS011;7322;50.872;4.386;2024-02-28T16:48:03;4.97;;;2.33;;
14472;SDS011;7322;50.872;4.386;2024-02-28T16:50:31;6.23;;;2.50;;
14472;SDS011;7322;50.872;4.386;2024-02-28T16:55:41;6.13;;;2.47;;
14472;SDS011;7322;50.872;4.386;2024-02-28T17:00:57;6.33;;;2.50;;
14472;SDS011;7322;50.872;4.386;2024-02-28T17:03:24;5.10;;;2.20;;
14472;SDS011;7322;50.872;4.386;2024-02-28T17:05:51;6.60;;;2.40;;
14472;SDS011;7322;50.872;4.386;2024-02-28T17:08:18;5.50;;;2.40;;
14472;SDS011;7322;50.872;4.386;2024-02-28T17:10:47;4.83;;;2.30;;
14472;SDS011;7322;50.872;4.386;2024-02-28T17:13:14;7.47;;;2.80;;
14472;SDS011;7322;50.872;4.386;2024-02-28T17:15:41;7.13;;;2.90;;
14472;SDS011;7322;50.872;4.386;2024-02-28T17:18:17;5.93;;;2.90;;
14472;SDS011;7322;50.872;4.386;2024-02-28T17:20:59;5.70;;;2.80;;
14472;SDS011;7322;50.872;4.386;2024-02-28T17:23:28;7.47;;;2.97;;
14472;SDS011;7322;50.872;4.386;2024-02-28T17:25:59;8.77;;;3.50;;
14472;SDS011;7322;50.872;4.386;2024-02-28T17:31:11;5.70;;;3.23;;
14472;SDS011;7322;50.872;4.386;2024-02-28T17:33:40;6.47;;;2.83;;
14472;SDS011;7322;50.872;4.386;2024-02-28T17:36:10;7.13;;;3.03;;